createdAt,value
2022-10-01T00:00:08.967Z,15.85
2022-10-01T00:02:39.198Z,16.05
2022-10-01T00:05:10.957Z,16.60
2022-10-01T00:07:40.007Z,13.95
2022-10-01T00:10:09.955Z,15.30
2022-10-01T00:12:46.757Z,14.68
2022-10-01T00:15:16.972Z,14.25
2022-10-01T00:17:45.339Z,15.25
2022-10-01T00:20:14.855Z,14.57
2022-10-01T00:22:43.308Z,14.10
2022-10-01T00:25:12.108Z,14.13
2022-10-01T00:27:41.857Z,13.35
2022-10-01T00:30:12.242Z,14.40
2022-10-01T00:32:41.317Z,13.55
2022-10-01T00:35:10.433Z,15.20
2022-10-01T00:37:38.907Z,14.52
2022-10-01T00:40:08.483Z,14.25
2022-10-01T00:42:36.870Z,13.15
2022-10-01T00:45:07.326Z,15.60
2022-10-01T00:47:40.150Z,14.63
2022-10-01T00:50:11.950Z,14.07
2022-10-01T00:52:42.121Z,14.35
2022-10-01T00:55:13.472Z,12.07
2022-10-01T00:57:42.803Z,14.02
2022-10-01T01:00:14.340Z,14.43
2022-10-01T01:02:42.916Z,14.73
2022-10-01T01:05:13.904Z,13.77
2022-10-01T01:07:46.131Z,13.05
2022-10-01T01:10:15.216Z,12.98
2022-10-01T01:12:52.099Z,14.30
2022-10-01T01:15:26.177Z,14.10
2022-10-01T01:17:57.996Z,15.13
2022-10-01T01:20:41.959Z,14.75
2022-10-01T01:23:39.048Z,15.73
2022-10-01T01:26:13.895Z,12.65
2022-10-01T01:28:45.408Z,15.60
2022-10-01T01:31:16.814Z,16.08
2022-10-01T01:33:47.533Z,15.45
2022-10-01T01:36:18.669Z,13.85
2022-10-01T01:38:51.767Z,17.00
2022-10-01T01:41:21.485Z,17.45
2022-10-01T01:43:53.776Z,16.77
2022-10-01T01:46:22.662Z,16.60
2022-10-01T01:48:53.414Z,16.45
2022-10-01T01:51:26.184Z,16.33
2022-10-01T01:53:55.453Z,14.98
2022-10-01T01:56:24.041Z,16.20
2022-10-01T01:58:54.874Z,16.65
2022-10-01T02:01:34.838Z,14.25
2022-10-01T02:04:04.994Z,17.05
2022-10-01T02:06:37.077Z,15.93
2022-10-01T02:09:14.312Z,14.35
2022-10-01T02:11:49.741Z,15.88
2022-10-01T02:14:24.221Z,17.42
2022-10-01T02:16:57.978Z,16.42
2022-10-01T02:19:28.970Z,16.83
2022-10-01T02:22:00.994Z,17.30
2022-10-01T02:24:37.863Z,17.50
2022-10-01T02:27:11.514Z,18.05
2022-10-01T02:29:42.359Z,15.90
2022-10-01T02:32:11.286Z,16.75
2022-10-01T02:34:40.852Z,19.05
2022-10-01T02:37:09.989Z,19.15
2022-10-01T02:39:41.027Z,18.60
2022-10-01T02:42:10.207Z,18.48
2022-10-01T02:44:42.671Z,18.10
2022-10-01T02:47:15.705Z,18.13
2022-10-01T02:49:44.234Z,18.58
2022-10-01T02:52:17.791Z,17.85
2022-10-01T02:54:50.431Z,18.05
2022-10-01T02:57:27.563Z,19.20
2022-10-01T03:00:00.181Z,17.08
2022-10-01T03:02:29.501Z,18.05
2022-10-01T03:04:58.140Z,18.80
2022-10-01T03:07:27.244Z,18.38
2022-10-01T03:09:55.627Z,18.30
2022-10-01T03:12:24.569Z,17.55
2022-10-01T03:14:54.202Z,17.73
2022-10-01T03:17:23.996Z,18.08
2022-10-01T03:19:52.424Z,13.98
2022-10-01T03:22:22.791Z,15.02
2022-10-01T03:24:51.588Z,11.68
2022-10-01T03:27:20.012Z,16.00
2022-10-01T03:29:48.819Z,17.10
2022-10-01T03:32:17.604Z,13.48
2022-10-01T03:34:47.499Z,16.88
2022-10-01T03:37:16.051Z,16.13
2022-10-01T03:39:44.629Z,15.45
2022-10-01T03:42:13.058Z,16.90
2022-10-01T03:44:41.435Z,16.35
2022-10-01T03:47:09.927Z,15.93
2022-10-01T03:49:38.538Z,15.13
2022-10-01T03:52:08.314Z,15.15
2022-10-01T03:54:36.813Z,15.10
2022-10-01T03:57:06.140Z,15.88
2022-10-01T03:59:35.020Z,14.63
2022-10-01T04:02:03.735Z,14.70
2022-10-01T04:04:32.159Z,15.13
2022-10-01T04:07:00.522Z,14.35
2022-10-01T04:09:30.311Z,13.98
2022-10-01T04:11:59.335Z,14.48
2022-10-01T04:14:27.764Z,13.55
2022-10-01T04:16:56.164Z,14.68
2022-10-01T04:19:24.519Z,13.90
2022-10-01T04:21:52.854Z,14.25
2022-10-01T04:24:21.372Z,14.88
2022-10-01T04:26:52.098Z,14.30
2022-10-01T04:29:20.508Z,14.98
2022-10-01T04:31:48.954Z,14.15
2022-10-01T04:34:17.371Z,15.55
2022-10-01T04:36:45.727Z,15.25
2022-10-01T04:39:14.219Z,15.32
2022-10-01T04:41:42.664Z,14.90
2022-10-01T04:44:12.569Z,15.85
2022-10-01T04:46:41.059Z,15.48
2022-10-01T04:49:09.530Z,17.17
2022-10-01T04:51:37.937Z,15.65
2022-10-01T04:54:06.323Z,14.27
2022-10-01T04:56:34.704Z,15.73
2022-10-01T04:59:03.305Z,15.90
2022-10-01T05:01:33.325Z,16.70
2022-10-01T05:04:02.224Z,16.48
2022-10-01T05:06:30.617Z,15.85
2022-10-01T05:08:58.943Z,15.77
2022-10-01T05:11:27.344Z,16.30
2022-10-01T05:13:55.698Z,14.75
2022-10-01T05:16:24.112Z,15.88
2022-10-01T05:18:54.906Z,15.13
2022-10-01T05:21:23.280Z,14.90
2022-10-01T05:23:51.919Z,15.90
2022-10-01T05:26:20.309Z,14.95
2022-10-01T05:28:48.661Z,14.82
2022-10-01T05:31:18.897Z,15.23
2022-10-01T05:33:47.347Z,14.45
2022-10-01T05:36:17.435Z,15.10
2022-10-01T05:38:46.229Z,15.05
2022-10-01T05:41:14.713Z,14.57
2022-10-01T05:43:43.998Z,16.23
2022-10-01T05:46:12.916Z,15.13
2022-10-01T05:48:41.320Z,15.52
2022-10-01T05:51:09.715Z,15.57
2022-10-01T05:53:39.504Z,15.68
2022-10-01T05:56:08.336Z,16.35
2022-10-01T05:58:36.769Z,16.45
2022-10-01T06:01:05.326Z,15.55
2022-10-01T06:03:33.842Z,15.88
2022-10-01T06:06:02.234Z,16.33
2022-10-01T06:08:30.593Z,16.20
2022-10-01T06:11:03.464Z,16.73
2022-10-01T06:13:32.212Z,18.50
2022-10-01T06:16:00.668Z,18.63
2022-10-01T06:18:29.098Z,17.83
2022-10-01T06:20:59.958Z,18.20
2022-10-01T06:23:28.297Z,17.85
2022-10-01T06:25:56.954Z,17.17
2022-10-01T06:28:26.781Z,19.77
2022-10-01T06:30:55.237Z,20.40
2022-10-01T06:33:24.138Z,20.63
2022-10-01T06:35:54.123Z,20.83
2022-10-01T06:38:24.337Z,23.55
2022-10-01T06:40:54.001Z,22.92
2022-10-01T06:43:22.792Z,22.58
2022-10-01T06:45:52.868Z,23.40
2022-10-01T06:48:21.949Z,24.52
2022-10-01T06:50:52.339Z,22.08
2022-10-01T06:53:19.836Z,20.38
2022-10-01T06:55:50.034Z,22.38
2022-10-01T06:58:20.367Z,18.40
2022-10-01T07:00:49.822Z,20.35
2022-10-01T07:03:21.907Z,21.13
2022-10-01T07:05:50.892Z,17.70
2022-10-01T07:08:19.534Z,20.55
2022-10-01T07:10:47.895Z,20.08
2022-10-01T07:13:20.444Z,19.17
2022-10-01T07:15:49.215Z,25.67
2022-10-01T07:18:18.127Z,22.17
2022-10-01T07:20:49.376Z,18.98
2022-10-01T07:23:18.169Z,19.23
2022-10-01T07:25:46.846Z,19.70
2022-10-01T07:28:18.461Z,19.35
2022-10-01T07:30:48.820Z,18.38
2022-10-01T07:33:22.798Z,19.80
2022-10-01T07:35:53.220Z,20.40
2022-10-01T07:38:21.882Z,19.50
2022-10-01T07:40:53.164Z,19.23
2022-10-01T07:43:22.648Z,20.60
2022-10-01T07:45:52.625Z,19.88
2022-10-01T07:48:21.071Z,21.15
2022-10-01T07:50:49.801Z,20.02
2022-10-01T07:53:19.862Z,19.02
2022-10-01T07:55:48.243Z,19.70
2022-10-01T07:58:16.648Z,21.63
2022-10-01T08:00:45.149Z,21.17
2022-10-01T08:03:13.575Z,24.00
2022-10-01T08:05:43.315Z,24.50
2022-10-01T08:08:11.681Z,25.05
2022-10-01T08:10:41.486Z,23.73
2022-10-01T08:13:15.437Z,22.63
2022-10-01T08:15:44.506Z,23.77
2022-10-01T08:18:13.637Z,23.40
2022-10-01T08:20:42.311Z,24.05
2022-10-01T08:23:12.610Z,25.15
2022-10-01T08:25:43.875Z,24.98
2022-10-01T08:28:13.367Z,23.95
2022-10-01T08:30:43.966Z,24.85
2022-10-01T08:33:13.620Z,25.30
2022-10-01T08:35:43.707Z,25.80
2022-10-01T08:38:12.921Z,27.35
2022-10-01T08:40:47.474Z,26.60
2022-10-01T08:43:29.183Z,27.70
2022-10-01T08:45:59.991Z,28.13
2022-10-01T08:48:40.043Z,27.23
2022-10-01T08:51:11.348Z,25.35
2022-10-01T08:53:42.464Z,27.00
2022-10-01T08:56:22.899Z,25.17
2022-10-01T08:58:55.171Z,24.95
2022-10-01T09:01:23.876Z,25.33
2022-10-01T09:03:52.354Z,25.17
2022-10-01T09:06:22.931Z,23.48
2022-10-01T09:08:59.642Z,23.80
2022-10-01T09:11:45.745Z,24.83
2022-10-01T09:14:25.467Z,25.73
2022-10-01T09:17:01.344Z,26.17
2022-10-01T09:19:47.736Z,24.95
2022-10-01T09:22:33.262Z,23.42
2022-10-01T09:25:08.297Z,25.77
2022-10-01T09:27:39.575Z,24.00
2022-10-01T09:30:13.367Z,24.30
2022-10-01T09:32:45.027Z,24.17
2022-10-01T09:35:22.409Z,24.00
2022-10-01T09:37:55.135Z,26.00
2022-10-01T09:40:28.832Z,25.10
2022-10-01T09:42:59.162Z,22.42
2022-10-01T09:45:28.435Z,26.20
2022-10-01T09:48:01.682Z,26.42
2022-10-01T09:50:36.722Z,25.88
2022-10-01T09:53:05.670Z,26.17
2022-10-01T09:55:37.943Z,26.38
2022-10-01T09:58:13.677Z,26.55
2022-10-01T10:00:43.101Z,27.08
2022-10-01T10:03:11.702Z,28.77
2022-10-01T10:08:46.119Z,28.20
2022-10-01T10:11:22.387Z,27.38
2022-10-01T10:13:53.594Z,27.13
2022-10-01T10:16:26.623Z,27.33
2022-10-01T10:18:58.108Z,26.45
2022-10-01T10:21:29.860Z,26.63
2022-10-01T10:23:59.545Z,25.35
2022-10-01T10:26:32.701Z,28.38
2022-10-01T10:29:03.883Z,27.88
2022-10-01T10:31:40.868Z,27.20
2022-10-01T10:34:14.446Z,27.15
2022-10-01T10:36:43.047Z,27.88
2022-10-01T10:39:20.996Z,26.05
2022-10-01T10:41:50.638Z,26.42
2022-10-01T10:44:22.527Z,27.20
2022-10-01T10:46:52.013Z,28.40
2022-10-01T10:49:22.881Z,27.85
2022-10-01T10:51:54.152Z,27.40
2022-10-01T10:54:25.782Z,27.98
2022-10-01T10:57:02.539Z,27.98
2022-10-01T10:59:34.500Z,27.58
2022-10-01T11:02:04.895Z,28.65
2022-10-01T11:04:40.572Z,28.42
2022-10-01T11:07:09.083Z,28.25
2022-10-01T11:09:48.230Z,27.63
2022-10-01T11:12:26.693Z,28.35
2022-10-01T11:15:07.449Z,29.15
2022-10-01T11:17:51.327Z,28.55
2022-10-01T11:20:34.118Z,29.13
2022-10-01T11:23:16.814Z,28.02
2022-10-01T11:25:54.055Z,26.92
2022-10-01T11:28:33.440Z,26.90
2022-10-01T11:31:10.928Z,28.30
2022-10-01T11:33:47.126Z,25.92
2022-10-01T11:36:21.244Z,25.50
2022-10-01T11:38:53.758Z,24.17
2022-10-01T11:41:40.333Z,21.98
2022-10-01T11:44:13.900Z,21.95
2022-10-01T11:46:50.366Z,19.80
2022-10-01T11:49:28.096Z,20.67
2022-10-01T11:52:05.038Z,20.13
2022-10-01T11:54:35.962Z,19.33
2022-10-01T11:57:23.034Z,18.92
2022-10-01T11:59:54.770Z,19.60
2022-10-01T12:02:28.729Z,19.40
2022-10-01T12:04:59.854Z,18.50
2022-10-01T12:07:31.776Z,20.25
2022-10-01T12:10:07.676Z,20.13
2022-10-01T12:12:40.661Z,20.88
2022-10-01T12:15:13.963Z,21.50
2022-10-01T12:17:46.684Z,21.15
2022-10-01T12:20:23.781Z,19.60
2022-10-01T12:22:53.465Z,21.83
2022-10-01T12:25:25.206Z,20.17
2022-10-01T12:27:59.060Z,21.13
2022-10-01T12:30:30.188Z,18.95
2022-10-01T12:33:15.594Z,18.33
2022-10-01T12:35:58.044Z,17.67
2022-10-01T12:38:43.677Z,19.02
2022-10-01T12:41:23.081Z,17.15
2022-10-01T12:44:21.957Z,18.33
2022-10-01T12:46:58.208Z,18.80
2022-10-01T12:49:33.125Z,18.02
2022-10-01T12:52:07.372Z,18.58
2022-10-01T12:55:07.277Z,17.70
2022-10-01T12:57:43.143Z,17.48
2022-10-01T13:00:16.852Z,17.67
2022-10-01T13:03:23.715Z,19.73
2022-10-01T13:06:00.637Z,16.23
2022-10-01T13:08:38.308Z,15.68
2022-10-01T13:11:11.479Z,15.73
2022-10-01T13:13:40.335Z,15.18
2022-10-01T13:16:14.392Z,15.88
2022-10-01T13:18:54.564Z,15.15
2022-10-01T13:21:32.438Z,13.63
2022-10-01T13:24:03.196Z,12.60
2022-10-01T13:26:34.215Z,12.30
2022-10-01T13:29:10.084Z,12.57
2022-10-01T13:31:41.546Z,13.35
2022-10-01T13:34:36.238Z,12.35
2022-10-01T13:37:17.409Z,11.93
2022-10-01T13:39:46.170Z,12.38
2022-10-01T13:42:27.518Z,11.98
2022-10-01T13:44:58.492Z,11.88
2022-10-01T13:47:27.993Z,12.23
2022-10-01T13:49:59.185Z,12.18
2022-10-01T13:52:29.229Z,13.45
2022-10-01T13:54:58.229Z,12.68
2022-10-01T13:57:34.086Z,13.38
2022-10-01T14:00:20.685Z,12.27
2022-10-01T14:03:01.867Z,12.05
2022-10-01T14:05:35.137Z,12.88
2022-10-01T14:08:17.411Z,13.60
2022-10-01T14:11:07.676Z,12.82
2022-10-01T14:13:56.790Z,12.82
2022-10-01T14:16:25.390Z,11.88
2022-10-01T14:18:54.097Z,12.77
2022-10-01T14:21:47.448Z,12.20
2022-10-01T14:24:25.620Z,12.93
2022-10-01T14:26:55.929Z,12.27
2022-10-01T14:29:36.083Z,12.98
2022-10-01T14:32:13.804Z,12.80
2022-10-01T14:34:52.119Z,15.82
2022-10-01T14:37:20.984Z,13.30
2022-10-01T14:40:02.054Z,12.80
2022-10-01T14:42:32.057Z,11.70
2022-10-01T14:45:00.561Z,11.45
2022-10-01T14:47:35.643Z,12.35
2022-10-01T14:50:11.420Z,11.50
2022-10-01T14:52:42.553Z,11.48
2022-10-01T14:55:16.224Z,11.95
2022-10-01T14:57:46.970Z,11.88
2022-10-01T15:00:16.790Z,10.90
2022-10-01T15:02:47.093Z,11.18
2022-10-01T15:05:22.303Z,11.98
2022-10-01T15:07:51.020Z,11.85
2022-10-01T15:10:24.166Z,11.85
2022-10-01T15:12:53.506Z,11.25
2022-10-01T15:15:23.503Z,10.07
2022-10-01T15:17:52.168Z,11.18
2022-10-01T15:20:20.722Z,11.95
2022-10-01T15:22:50.151Z,11.38
2022-10-01T15:25:22.966Z,10.73
2022-10-01T15:27:54.226Z,12.40
2022-10-01T15:30:22.738Z,12.25
2022-10-01T15:32:51.977Z,11.73
2022-10-01T15:35:24.648Z,12.13
2022-10-01T15:37:53.825Z,12.48
2022-10-01T15:40:27.544Z,12.23
2022-10-01T15:43:24.314Z,11.73
2022-10-01T15:46:11.073Z,11.18
2022-10-01T15:48:39.588Z,12.23
2022-10-01T15:51:22.704Z,11.45
2022-10-01T15:53:52.718Z,12.38
2022-10-01T15:56:24.231Z,12.13
2022-10-01T15:58:54.744Z,13.55
2022-10-01T16:01:25.586Z,12.63
2022-10-01T16:03:56.710Z,12.65
2022-10-01T16:06:28.536Z,11.88
2022-10-01T16:09:06.256Z,12.63
2022-10-01T16:11:51.824Z,13.07
2022-10-01T16:14:30.042Z,12.68
2022-10-01T16:17:37.730Z,12.82
2022-10-01T16:20:50.486Z,12.77
2022-10-01T16:23:38.660Z,13.18
2022-10-01T16:26:24.395Z,12.45
2022-10-01T16:28:57.161Z,13.27
2022-10-01T16:31:29.080Z,13.15
2022-10-01T16:33:57.582Z,13.68
2022-10-01T16:36:26.663Z,13.60
2022-10-01T16:38:55.192Z,12.93
2022-10-01T16:41:24.987Z,13.55
2022-10-01T16:43:56.374Z,12.63
2022-10-01T16:46:24.772Z,13.35
2022-10-01T16:48:53.238Z,12.82
2022-10-01T16:51:22.757Z,11.85
2022-10-01T16:53:57.104Z,11.93
2022-10-01T16:56:27.303Z,11.38
2022-10-01T16:58:57.345Z,11.77
2022-10-01T17:01:32.896Z,12.40
2022-10-01T17:04:01.574Z,12.32
2022-10-01T17:06:29.962Z,12.40
2022-10-01T17:08:58.360Z,11.93
2022-10-01T17:11:27.344Z,11.65
2022-10-01T17:13:57.333Z,12.50
2022-10-01T17:16:25.836Z,12.80
2022-10-01T17:18:54.253Z,10.90
2022-10-01T17:21:22.669Z,12.13
2022-10-01T17:23:53.495Z,11.82
2022-10-01T17:26:22.033Z,13.00
2022-10-01T17:28:50.744Z,12.68
2022-10-01T17:31:20.543Z,14.43
2022-10-01T17:33:51.249Z,13.57
2022-10-01T17:36:19.912Z,13.70
2022-10-01T17:38:48.440Z,13.35
2022-10-01T17:41:17.235Z,14.52
2022-10-01T17:43:45.849Z,14.57
2022-10-01T17:46:14.286Z,14.32
2022-10-01T17:48:44.115Z,13.88
2022-10-01T17:51:14.527Z,14.02
2022-10-01T17:53:44.423Z,13.98
2022-10-01T17:56:15.802Z,14.35
2022-10-01T17:58:45.929Z,13.68
2022-10-01T18:01:19.876Z,14.05
2022-10-01T18:03:54.143Z,15.75
2022-10-01T18:06:23.753Z,14.30
2022-10-01T18:08:56.450Z,14.75
2022-10-01T18:11:25.856Z,13.93
2022-10-01T18:13:54.341Z,13.13
2022-10-01T18:16:23.196Z,13.45
2022-10-01T18:21:46.080Z,13.80
2022-10-01T18:24:14.637Z,13.77
2022-10-01T18:26:43.030Z,14.95
2022-10-01T18:29:13.407Z,16.67
2022-10-01T18:31:44.775Z,14.75
2022-10-01T18:34:19.840Z,15.90
2022-10-01T18:36:54.567Z,17.70
2022-10-01T18:39:29.809Z,15.63
2022-10-01T18:41:58.435Z,16.80
2022-10-01T18:44:27.272Z,16.67
2022-10-01T18:47:04.548Z,18.05
2022-10-01T18:49:55.959Z,17.05
2022-10-01T18:52:31.116Z,17.90
2022-10-01T18:55:25.412Z,18.63
2022-10-01T18:58:07.973Z,18.60
2022-10-01T19:00:41.813Z,19.90
2022-10-01T19:03:31.601Z,17.30
2022-10-01T19:06:13.648Z,16.40
2022-10-01T19:08:52.572Z,14.38
2022-10-01T19:11:27.336Z,11.80
2022-10-01T19:14:12.412Z,12.02
2022-10-01T19:16:47.830Z,10.90
2022-10-01T19:19:28.833Z,12.85
2022-10-01T19:22:01.945Z,12.48
2022-10-01T19:24:42.241Z,11.27
2022-10-01T19:27:19.489Z,11.73
2022-10-01T19:29:57.682Z,12.90
2022-10-01T19:32:28.716Z,12.35
2022-10-01T19:35:02.168Z,13.48
2022-10-01T19:37:37.985Z,12.82
2022-10-01T19:40:13.936Z,14.63
2022-10-01T19:42:46.466Z,14.50
2022-10-01T19:45:20.014Z,15.18
2022-10-01T19:47:53.863Z,16.20
2022-10-01T19:50:25.073Z,16.52
2022-10-01T19:52:58.187Z,17.00
2022-10-01T19:55:27.886Z,17.63
2022-10-01T19:57:56.296Z,12.80
2022-10-01T20:00:26.058Z,15.90
2022-10-01T20:03:00.818Z,15.48
2022-10-01T20:05:31.071Z,12.40
2022-10-01T20:08:07.552Z,11.10
2022-10-01T20:10:39.829Z,12.05
2022-10-01T20:13:23.679Z,12.60
2022-10-01T20:15:59.983Z,12.27
2022-10-01T20:18:35.272Z,11.40
2022-10-01T20:21:12.725Z,10.73
2022-10-01T20:23:47.180Z,11.18
2022-10-01T20:26:21.215Z,12.10
2022-10-01T20:28:58.538Z,12.88
2022-10-01T20:31:31.202Z,12.38
2022-10-01T20:34:04.057Z,12.70
2022-10-01T20:36:36.726Z,12.55
2022-10-01T20:39:11.902Z,13.38
2022-10-01T20:41:45.156Z,12.73
2022-10-01T20:44:16.772Z,13.20
2022-10-01T20:46:48.201Z,12.35
2022-10-01T20:49:23.334Z,12.02
2022-10-01T20:51:56.268Z,11.80
2022-10-01T20:54:32.755Z,14.48
2022-10-01T20:57:06.800Z,9.38
2022-10-01T20:59:39.273Z,10.23
2022-10-01T21:02:28.709Z,8.68
2022-10-01T21:05:05.760Z,9.30
2022-10-01T21:07:38.161Z,8.40
2022-10-01T21:10:17.286Z,9.55
2022-10-01T21:12:52.602Z,8.70
2022-10-01T21:15:26.528Z,8.38
2022-10-01T21:18:00.953Z,9.27
2022-10-01T21:23:24.753Z,9.57
2022-10-01T21:26:02.950Z,9.52
2022-10-01T21:28:45.009Z,10.10
2022-10-01T21:31:25.673Z,9.48
2022-10-01T21:33:55.605Z,10.15
2022-10-01T21:36:29.534Z,9.82
2022-10-01T21:39:01.904Z,9.75
2022-10-01T21:41:48.520Z,10.55
2022-10-01T21:44:44.807Z,9.40
2022-10-01T21:47:18.066Z,9.18
2022-10-01T21:49:53.048Z,8.85
2022-10-01T21:52:27.446Z,10.18
2022-10-01T21:55:17.235Z,9.27
2022-10-01T21:58:01.524Z,8.98
2022-10-01T22:00:30.823Z,8.68
2022-10-01T22:03:07.584Z,8.60
2022-10-01T22:05:40.701Z,9.23
2022-10-01T22:08:20.172Z,8.32
2022-10-01T22:10:51.271Z,7.70
2022-10-01T22:13:23.318Z,8.32
2022-10-01T22:15:54.515Z,6.97
2022-10-01T22:18:32.723Z,6.72
2022-10-01T22:21:02.217Z,7.05
2022-10-01T22:23:32.617Z,6.35
2022-10-01T22:26:05.079Z,6.40
2022-10-01T22:28:38.421Z,6.43
2022-10-01T22:31:11.494Z,6.78
2022-10-01T22:33:45.117Z,6.70
2022-10-01T22:36:17.278Z,6.53
2022-10-01T22:38:51.509Z,6.55
2022-10-01T22:41:23.984Z,5.93
2022-10-01T22:43:53.797Z,5.22
2022-10-01T22:46:47.184Z,4.75
2022-10-01T22:49:25.573Z,4.85
2022-10-01T22:52:04.113Z,5.30
2022-10-01T22:54:40.296Z,4.80
2022-10-01T22:57:17.261Z,4.45
2022-10-01T22:59:53.216Z,4.78
2022-10-01T23:02:26.694Z,4.43
2022-10-01T23:05:06.446Z,4.07
2022-10-01T23:07:43.809Z,4.03
2022-10-01T23:10:15.462Z,3.70
2022-10-01T23:13:01.321Z,4.18
2022-10-01T23:15:37.242Z,4.05
2022-10-01T23:18:11.141Z,4.18
2022-10-01T23:20:43.814Z,4.10
2022-10-01T23:23:25.603Z,3.58
2022-10-01T23:26:20.542Z,3.50
2022-10-01T23:28:59.404Z,3.78
2022-10-01T23:31:34.504Z,3.67
2022-10-01T23:34:15.670Z,3.85
2022-10-01T23:36:49.356Z,3.75
2022-10-01T23:39:34.815Z,3.47
2022-10-01T23:42:08.282Z,3.53
2022-10-01T23:44:40.438Z,3.50
2022-10-01T23:47:15.584Z,3.72
2022-10-01T23:49:46.388Z,3.70
2022-10-01T23:52:16.862Z,3.90
2022-10-01T23:54:49.414Z,3.60
2022-10-01T23:57:21.760Z,2.88
2022-10-01T23:59:54.126Z,3.55
